sensor_id;sensor_type;location;lat;lon;timestamp;temperature;humidity
20349;DHT22;10332;50.208;18.988;2022-11-09T00:01:01;9.50;99.90
20349;DHT22;10332;50.208;18.988;2022-11-09T00:03:30;9.50;99.90
20349;DHT22;10332;50.208;18.988;2022-11-09T00:05:59;9.40;99.90
20349;DHT22;10332;50.208;18.988;2022-11-09T00:08:27;9.40;99.90
20349;DHT22;10332;50.208;18.988;2022-11-09T00:11:01;9.40;99.90
20349;DHT22;10332;50.208;18.988;2022-11-09T00:13:37;9.40;99.90
20349;DHT22;10332;50.208;18.988;2022-11-09T00:16:07;9.40;99.90
20349;DHT22;10332;50.208;18.988;2022-11-09T00:18:40;9.50;99.90
20349;DHT22;10332;50.208;18.988;2022-11-09T00:21:16;9.40;99.90
20349;DHT22;10332;50.208;18.988;2022-11-09T00:23:45;9.40;99.90
20349;DHT22;10332;50.208;18.988;2022-11-09T00:26:14;9.30;99.90
20349;DHT22;10332;50.208;18.988;2022-11-09T00:28:42;9.40;99.90
20349;DHT22;10332;50.208;18.988;2022-11-09T00:31:12;9.40;99.90
20349;DHT22;10332;50.208;18.988;2022-11-09T00:33:42;9.40;99.90
20349;DHT22;10332;50.208;18.988;2022-11-09T00:36:11;9.40;99.90
20349;DHT22;10332;50.208;18.988;2022-11-09T00:38:39;9.40;99.90
20349;DHT22;10332;50.208;18.988;2022-11-09T00:41:09;9.40;99.90
20349;DHT22;10332;50.208;18.988;2022-11-09T00:43:37;9.30;99.90
20349;DHT22;10332;50.208;18.988;2022-11-09T00:46:05;9.40;99.90
20349;DHT22;10332;50.208;18.988;2022-11-09T00:48:32;9.30;99.90
20349;DHT22;10332;50.208;18.988;2022-11-09T00:51:01;9.30;99.90
20349;DHT22;10332;50.208;18.988;2022-11-09T00:53:29;9.30;99.90
20349;DHT22;10332;50.208;18.988;2022-11-09T00:58:43;9.40;99.90
20349;DHT22;10332;50.208;18.988;2022-11-09T01:01:13;9.40;99.90
20349;DHT22;10332;50.208;18.988;2022-11-09T01:03:43;9.40;99.90
20349;DHT22;10332;50.208;18.988;2022-11-09T01:06:14;9.40;99.90
20349;DHT22;10332;50.208;18.988;2022-11-09T01:08:44;9.50;99.90
20349;DHT22;10332;50.208;18.988;2022-11-09T01:11:12;9.40;99.90
20349;DHT22;10332;50.208;18.988;2022-11-09T01:13:40;9.40;99.90
20349;DHT22;10332;50.208;18.988;2022-11-09T01:16:17;9.50;99.90
20349;DHT22;10332;50.208;18.988;2022-11-09T01:18:46;9.50;99.90
20349;DHT22;10332;50.208;18.988;2022-11-09T01:21:14;9.50;99.90
20349;DHT22;10332;50.208;18.988;2022-11-09T01:23:42;9.50;99.90
20349;DHT22;10332;50.208;18.988;2022-11-09T01:26:11;9.50;99.90
20349;DHT22;10332;50.208;18.988;2022-11-09T01:28:40;9.50;99.90
20349;DHT22;10332;50.208;18.988;2022-11-09T01:31:14;9.50;99.90
20349;DHT22;10332;50.208;18.988;2022-11-09T01:33:44;9.50;99.90
20349;DHT22;10332;50.208;18.988;2022-11-09T01:36:18;9.50;99.90
20349;DHT22;10332;50.208;18.988;2022-11-09T01:38:47;9.60;99.90
20349;DHT22;10332;50.208;18.988;2022-11-09T01:41:22;9.60;99.90
20349;DHT22;10332;50.208;18.988;2022-11-09T01:44:20;9.50;99.90
20349;DHT22;10332;50.208;18.988;2022-11-09T01:47:13;9.50;99.90
20349;DHT22;10332;50.208;18.988;2022-11-09T01:49:54;9.50;99.90
20349;DHT22;10332;50.208;18.988;2022-11-09T01:52:35;9.40;99.90
20349;DHT22;10332;50.208;18.988;2022-11-09T01:55:19;9.40;99.90
20349;DHT22;10332;50.208;18.988;2022-11-09T01:57:54;9.30;99.90
20349;DHT22;10332;50.208;18.988;2022-11-09T02:00:26;9.30;99.90
20349;DHT22;10332;50.208;18.988;2022-11-09T02:06:05;9.20;99.90
20349;DHT22;10332;50.208;18.988;2022-11-09T02:08:36;9.20;99.90
20349;DHT22;10332;50.208;18.988;2022-11-09T02:11:08;9.20;99.90
20349;DHT22;10332;50.208;18.988;2022-11-09T02:13:46;9.20;99.90
20349;DHT22;10332;50.208;18.988;2022-11-09T02:16:17;9.10;99.90
20349;DHT22;10332;50.208;18.988;2022-11-09T02:18:57;9.10;99.90
20349;DHT22;10332;50.208;18.988;2022-11-09T02:21:28;9.00;99.90
20349;DHT22;10332;50.208;18.988;2022-11-09T02:23:58;9.10;99.90
20349;DHT22;10332;50.208;18.988;2022-11-09T02:26:43;9.00;99.90
20349;DHT22;10332;50.208;18.988;2022-11-09T02:29:18;9.00;99.90
20349;DHT22;10332;50.208;18.988;2022-11-09T02:31:53;9.00;99.90
20349;DHT22;10332;50.208;18.988;2022-11-09T02:34:25;9.00;99.90
20349;DHT22;10332;50.208;18.988;2022-11-09T02:36:53;8.90;99.90
20349;DHT22;10332;50.208;18.988;2022-11-09T02:39:22;8.90;99.90
20349;DHT22;10332;50.208;18.988;2022-11-09T02:42:10;8.90;99.90
20349;DHT22;10332;50.208;18.988;2022-11-09T02:44:49;8.90;99.90
20349;DHT22;10332;50.208;18.988;2022-11-09T02:47:20;8.90;99.90
20349;DHT22;10332;50.208;18.988;2022-11-09T02:49:48;8.90;99.90
20349;DHT22;10332;50.208;18.988;2022-11-09T02:52:16;9.00;99.90
20349;DHT22;10332;50.208;18.988;2022-11-09T02:54:45;8.90;99.90
20349;DHT22;10332;50.208;18.988;2022-11-09T02:57:12;9.00;99.90
20349;DHT22;10332;50.208;18.988;2022-11-09T02:59:39;8.90;99.90
20349;DHT22;10332;50.208;18.988;2022-11-09T03:02:07;8.90;99.90
20349;DHT22;10332;50.208;18.988;2022-11-09T03:04:34;9.00;99.90
20349;DHT22;10332;50.208;18.988;2022-11-09T03:07:01;8.90;99.90
20349;DHT22;10332;50.208;18.988;2022-11-09T03:09:29;9.00;99.90
20349;DHT22;10332;50.208;18.988;2022-11-09T03:11:56;9.00;99.90
20349;DHT22;10332;50.208;18.988;2022-11-09T03:14:24;8.90;99.90
20349;DHT22;10332;50.208;18.988;2022-11-09T03:16:51;8.90;99.90
20349;DHT22;10332;50.208;18.988;2022-11-09T03:19:18;8.90;99.90
20349;DHT22;10332;50.208;18.988;2022-11-09T03:21:45;8.90;99.90
20349;DHT22;10332;50.208;18.988;2022-11-09T03:24:13;8.90;99.90
20349;DHT22;10332;50.208;18.988;2022-11-09T03:26:40;8.80;99.90
20349;DHT22;10332;50.208;18.988;2022-11-09T03:29:08;8.80;99.90
20349;DHT22;10332;50.208;18.988;2022-11-09T03:31:35;8.80;99.90
20349;DHT22;10332;50.208;18.988;2022-11-09T03:34:02;8.80;99.90
20349;DHT22;10332;50.208;18.988;2022-11-09T03:36:30;8.70;99.90
20349;DHT22;10332;50.208;18.988;2022-11-09T03:38:57;8.70;99.90
20349;DHT22;10332;50.208;18.988;2022-11-09T03:41:24;8.70;99.90
20349;DHT22;10332;50.208;18.988;2022-11-09T03:43:52;8.70;99.90
20349;DHT22;10332;50.208;18.988;2022-11-09T03:46:19;8.70;99.90
20349;DHT22;10332;50.208;18.988;2022-11-09T03:48:46;8.70;99.90
20349;DHT22;10332;50.208;18.988;2022-11-09T03:51:14;8.60;99.90
20349;DHT22;10332;50.208;18.988;2022-11-09T03:53:41;8.70;99.90
20349;DHT22;10332;50.208;18.988;2022-11-09T03:56:08;8.60;99.90
20349;DHT22;10332;50.208;18.988;2022-11-09T03:58:36;8.60;99.90
20349;DHT22;10332;50.208;18.988;2022-11-09T04:01:03;8.60;99.90
20349;DHT22;10332;50.208;18.988;2022-11-09T04:03:30;8.60;99.90
20349;DHT22;10332;50.208;18.988;2022-11-09T04:05:58;8.50;99.90
20349;DHT22;10332;50.208;18.988;2022-11-09T04:08:26;8.60;99.90
20349;DHT22;10332;50.208;18.988;2022-11-09T04:10:53;8.50;99.90
20349;DHT22;10332;50.208;18.988;2022-11-09T04:13:21;8.60;99.90
20349;DHT22;10332;50.208;18.988;2022-11-09T04:15:48;8.60;99.90
20349;DHT22;10332;50.208;18.988;2022-11-09T04:18:16;8.60;99.90
20349;DHT22;10332;50.208;18.988;2022-11-09T04:20:43;8.50;99.90
20349;DHT22;10332;50.208;18.988;2022-11-09T04:23:12;8.60;99.90
20349;DHT22;10332;50.208;18.988;2022-11-09T04:25:40;8.50;99.90
20349;DHT22;10332;50.208;18.988;2022-11-09T04:28:10;8.50;99.90
20349;DHT22;10332;50.208;18.988;2022-11-09T04:30:38;8.50;99.90
20349;DHT22;10332;50.208;18.988;2022-11-09T04:33:08;8.50;99.90
20349;DHT22;10332;50.208;18.988;2022-11-09T04:35:35;8.50;99.90
20349;DHT22;10332;50.208;18.988;2022-11-09T04:38:05;8.50;99.90
20349;DHT22;10332;50.208;18.988;2022-11-09T04:40:34;8.40;99.90
20349;DHT22;10332;50.208;18.988;2022-11-09T04:43:04;8.40;99.90
20349;DHT22;10332;50.208;18.988;2022-11-09T04:45:34;8.40;99.90
20349;DHT22;10332;50.208;18.988;2022-11-09T04:48:06;8.40;99.90
20349;DHT22;10332;50.208;18.988;2022-11-09T04:50:33;8.40;99.90
20349;DHT22;10332;50.208;18.988;2022-11-09T04:53:09;8.40;99.90
20349;DHT22;10332;50.208;18.988;2022-11-09T04:55:41;8.40;99.90
20349;DHT22;10332;50.208;18.988;2022-11-09T04:58:09;8.40;99.90
20349;DHT22;10332;50.208;18.988;2022-11-09T05:00:37;8.40;99.90
20349;DHT22;10332;50.208;18.988;2022-11-09T05:03:06;8.40;99.90
20349;DHT22;10332;50.208;18.988;2022-11-09T05:05:35;8.40;99.90
20349;DHT22;10332;50.208;18.988;2022-11-09T05:08:04;8.50;99.90
20349;DHT22;10332;50.208;18.988;2022-11-09T05:10:32;8.50;99.90
20349;DHT22;10332;50.208;18.988;2022-11-09T05:13:03;8.50;99.90
20349;DHT22;10332;50.208;18.988;2022-11-09T05:15:33;8.50;99.90
20349;DHT22;10332;50.208;18.988;2022-11-09T05:18:02;8.60;99.90
20349;DHT22;10332;50.208;18.988;2022-11-09T05:20:31;8.60;99.90
20349;DHT22;10332;50.208;18.988;2022-11-09T05:22:59;8.60;99.90
20349;DHT22;10332;50.208;18.988;2022-11-09T05:25:46;8.60;99.90
20349;DHT22;10332;50.208;18.988;2022-11-09T05:28:13;8.60;99.90
20349;DHT22;10332;50.208;18.988;2022-11-09T05:30:41;8.60;99.90
20349;DHT22;10332;50.208;18.988;2022-11-09T05:33:08;8.60;99.90
20349;DHT22;10332;50.208;18.988;2022-11-09T05:35:36;8.60;99.90
20349;DHT22;10332;50.208;18.988;2022-11-09T05:38:03;8.70;99.90
20349;DHT22;10332;50.208;18.988;2022-11-09T05:40:30;8.70;99.90
20349;DHT22;10332;50.208;18.988;2022-11-09T05:42:59;8.70;99.90
20349;DHT22;10332;50.208;18.988;2022-11-09T05:45:26;8.70;99.90
20349;DHT22;10332;50.208;18.988;2022-11-09T05:48:12;8.70;99.90
20349;DHT22;10332;50.208;18.988;2022-11-09T05:50:40;8.70;99.90
20349;DHT22;10332;50.208;18.988;2022-11-09T05:53:10;8.70;99.90
20349;DHT22;10332;50.208;18.988;2022-11-09T05:55:38;8.80;99.90
20349;DHT22;10332;50.208;18.988;2022-11-09T05:58:07;8.70;99.90
20349;DHT22;10332;50.208;18.988;2022-11-09T06:00:35;8.80;99.90
20349;DHT22;10332;50.208;18.988;2022-11-09T06:03:04;8.80;99.90
20349;DHT22;10332;50.208;18.988;2022-11-09T06:05:34;8.80;99.90
20349;DHT22;10332;50.208;18.988;2022-11-09T06:08:12;8.90;99.90
20349;DHT22;10332;50.208;18.988;2022-11-09T06:10:41;8.90;99.90
20349;DHT22;10332;50.208;18.988;2022-11-09T06:13:09;8.90;99.90
20349;DHT22;10332;50.208;18.988;2022-11-09T06:15:37;9.00;99.90
20349;DHT22;10332;50.208;18.988;2022-11-09T06:18:04;9.10;99.90
20349;DHT22;10332;50.208;18.988;2022-11-09T06:20:32;9.10;99.90
20349;DHT22;10332;50.208;18.988;2022-11-09T06:23:01;9.20;99.90
20349;DHT22;10332;50.208;18.988;2022-11-09T06:25:31;9.20;99.90
20349;DHT22;10332;50.208;18.988;2022-11-09T06:28:00;9.30;99.90
20349;DHT22;10332;50.208;18.988;2022-11-09T06:30:27;9.40;99.90
20349;DHT22;10332;50.208;18.988;2022-11-09T06:32:59;9.50;99.90
20349;DHT22;10332;50.208;18.988;2022-11-09T06:35:26;9.60;99.90
20349;DHT22;10332;50.208;18.988;2022-11-09T06:37:55;9.60;99.90
20349;DHT22;10332;50.208;18.988;2022-11-09T06:40:26;9.70;99.90
20349;DHT22;10332;50.208;18.988;2022-11-09T06:42:58;9.80;99.90
20349;DHT22;10332;50.208;18.988;2022-11-09T06:45:27;9.80;99.90
20349;DHT22;10332;50.208;18.988;2022-11-09T06:47:57;9.90;99.90
20349;DHT22;10332;50.208;18.988;2022-11-09T06:50:27;10.00;99.90
20349;DHT22;10332;50.208;18.988;2022-11-09T06:52:58;10.00;99.90
20349;DHT22;10332;50.208;18.988;2022-11-09T06:55:29;10.10;99.90
20349;DHT22;10332;50.208;18.988;2022-11-09T06:57:57;10.30;99.90
20349;DHT22;10332;50.208;18.988;2022-11-09T07:00:26;10.40;99.70
20349;DHT22;10332;50.208;18.988;2022-11-09T07:02:54;10.60;99.10
20349;DHT22;10332;50.208;18.988;2022-11-09T07:05:22;10.70;97.90
20349;DHT22;10332;50.208;18.988;2022-11-09T07:07:50;10.80;96.70
20349;DHT22;10332;50.208;18.988;2022-11-09T07:10:18;10.90;95.80
20349;DHT22;10332;50.208;18.988;2022-11-09T07:12:51;11.00;95.30
20349;DHT22;10332;50.208;18.988;2022-11-09T07:15:19;11.10;95.20
20349;DHT22;10332;50.208;18.988;2022-11-09T07:17:46;11.10;95.00
20349;DHT22;10332;50.208;18.988;2022-11-09T07:20:14;11.20;94.70
20349;DHT22;10332;50.208;18.988;2022-11-09T07:22:42;11.30;94.00
20349;DHT22;10332;50.208;18.988;2022-11-09T07:25:10;11.40;93.80
20349;DHT22;10332;50.208;18.988;2022-11-09T07:27:39;11.50;93.20
20349;DHT22;10332;50.208;18.988;2022-11-09T07:30:07;11.60;92.50
20349;DHT22;10332;50.208;18.988;2022-11-09T07:32:36;11.70;92.20
20349;DHT22;10332;50.208;18.988;2022-11-09T07:35:25;11.80;91.90
20349;DHT22;10332;50.208;18.988;2022-11-09T07:37:53;11.90;91.30
20349;DHT22;10332;50.208;18.988;2022-11-09T07:40:20;12.00;91.20
20349;DHT22;10332;50.208;18.988;2022-11-09T07:42:48;12.10;90.80
20349;DHT22;10332;50.208;18.988;2022-11-09T07:45:15;12.30;90.00
20349;DHT22;10332;50.208;18.988;2022-11-09T07:47:43;12.50;88.80
20349;DHT22;10332;50.208;18.988;2022-11-09T07:50:10;12.60;88.00
20349;DHT22;10332;50.208;18.988;2022-11-09T07:52:37;12.70;87.30
20349;DHT22;10332;50.208;18.988;2022-11-09T07:55:05;12.80;85.80
20349;DHT22;10332;50.208;18.988;2022-11-09T07:57:33;13.00;85.50
20349;DHT22;10332;50.208;18.988;2022-11-09T08:00:00;13.20;83.80
20349;DHT22;10332;50.208;18.988;2022-11-09T08:02:28;13.40;80.50
20349;DHT22;10332;50.208;18.988;2022-11-09T08:04:55;13.60;78.80
20349;DHT22;10332;50.208;18.988;2022-11-09T08:07:22;13.90;76.00
20349;DHT22;10332;50.208;18.988;2022-11-09T08:09:49;14.40;72.50
20349;DHT22;10332;50.208;18.988;2022-11-09T08:12:17;14.70;70.10
20349;DHT22;10332;50.208;18.988;2022-11-09T08:14:44;15.10;65.80
20349;DHT22;10332;50.208;18.988;2022-11-09T08:17:11;15.90;61.60
20349;DHT22;10332;50.208;18.988;2022-11-09T08:19:39;17.10;55.60
20349;DHT22;10332;50.208;18.988;2022-11-09T08:22:06;17.90;49.00
20349;DHT22;10332;50.208;18.988;2022-11-09T08:24:33;18.90;41.90
20349;DHT22;10332;50.208;18.988;2022-11-09T08:27:01;19.90;35.20
20349;DHT22;10332;50.208;18.988;2022-11-09T08:29:28;20.00;28.00
20349;DHT22;10332;50.208;18.988;2022-11-09T08:31:56;20.30;27.40
20349;DHT22;10332;50.208;18.988;2022-11-09T08:34:23;20.90;23.40
20349;DHT22;10332;50.208;18.988;2022-11-09T08:36:51;21.10;18.70
20349;DHT22;10332;50.208;18.988;2022-11-09T08:39:19;21.00;13.70
20349;DHT22;10332;50.208;18.988;2022-11-09T08:41:49;20.60;13.70
20349;DHT22;10332;50.208;18.988;2022-11-09T08:44:16;20.10;14.60
20349;DHT22;10332;50.208;18.988;2022-11-09T08:46:44;20.10;16.10
20349;DHT22;10332;50.208;18.988;2022-11-09T08:49:11;20.30;14.60
20349;DHT22;10332;50.208;18.988;2022-11-09T08:51:39;20.00;13.50
20349;DHT22;10332;50.208;18.988;2022-11-09T08:54:06;19.80;15.20
20349;DHT22;10332;50.208;18.988;2022-11-09T08:56:35;19.40;15.70
20349;DHT22;10332;50.208;18.988;2022-11-09T08:59:02;18.90;18.20
20349;DHT22;10332;50.208;18.988;2022-11-09T09:01:29;18.50;20.60
20349;DHT22;10332;50.208;18.988;2022-11-09T09:03:57;18.10;22.70
20349;DHT22;10332;50.208;18.988;2022-11-09T09:06:24;17.60;25.40
20349;DHT22;10332;50.208;18.988;2022-11-09T09:08:57;17.40;28.10
20349;DHT22;10332;50.208;18.988;2022-11-09T09:11:24;17.10;30.30
20349;DHT22;10332;50.208;18.988;2022-11-09T09:13:52;17.00;32.10
20349;DHT22;10332;50.208;18.988;2022-11-09T09:16:19;16.90;34.00
20349;DHT22;10332;50.208;18.988;2022-11-09T09:18:47;16.90;34.80
20349;DHT22;10332;50.208;18.988;2022-11-09T09:21:15;17.00;34.90
20349;DHT22;10332;50.208;18.988;2022-11-09T09:23:42;17.20;34.30
20349;DHT22;10332;50.208;18.988;2022-11-09T09:26:10;17.50;33.40
20349;DHT22;10332;50.208;18.988;2022-11-09T09:28:37;17.70;31.10
20349;DHT22;10332;50.208;18.988;2022-11-09T09:31:05;17.80;29.70
20349;DHT22;10332;50.208;18.988;2022-11-09T09:33:32;18.00;28.00
20349;DHT22;10332;50.208;18.988;2022-11-09T09:36:00;18.20;27.00
20349;DHT22;10332;50.208;18.988;2022-11-09T09:38:28;18.40;26.30
20349;DHT22;10332;50.208;18.988;2022-11-09T09:41:01;19.00;23.60
20349;DHT22;10332;50.208;18.988;2022-11-09T09:43:45;19.60;19.20
20349;DHT22;10332;50.208;18.988;2022-11-09T09:46:30;20.60;14.30
20349;DHT22;10332;50.208;18.988;2022-11-09T09:49:11;22.30;5.90
20349;DHT22;10332;50.208;18.988;2022-11-09T09:52:00;24.50;1.00
20349;DHT22;10332;50.208;18.988;2022-11-09T09:54:34;25.70;1.00
20349;DHT22;10332;50.208;18.988;2022-11-09T09:57:16;26.80;1.00
20349;DHT22;10332;50.208;18.988;2022-11-09T09:59:53;27.80;1.00
20349;DHT22;10332;50.208;18.988;2022-11-09T10:02:29;28.40;1.00
20349;DHT22;10332;50.208;18.988;2022-11-09T10:05:08;28.50;1.00
20349;DHT22;10332;50.208;18.988;2022-11-09T10:10:40;28.80;1.00
20349;DHT22;10332;50.208;18.988;2022-11-09T10:20:01;30.80;1.00
20349;DHT22;10332;50.208;18.988;2022-11-09T10:25:37;32.30;1.00
20349;DHT22;10332;50.208;18.988;2022-11-09T10:28:28;33.30;1.00
20349;DHT22;10332;50.208;18.988;2022-11-09T10:31:18;33.70;1.00
20349;DHT22;10332;50.208;18.988;2022-11-09T10:34:02;34.10;1.00
20349;DHT22;10332;50.208;18.988;2022-11-09T10:37:03;33.70;1.00
20349;DHT22;10332;50.208;18.988;2022-11-09T10:39:46;33.80;1.00
20349;DHT22;10332;50.208;18.988;2022-11-09T10:42:18;33.80;1.00
20349;DHT22;10332;50.208;18.988;2022-11-09T10:44:45;33.80;1.00
20349;DHT22;10332;50.208;18.988;2022-11-09T10:47:15;33.60;1.00
20349;DHT22;10332;50.208;18.988;2022-11-09T10:49:44;33.40;1.00
20349;DHT22;10332;50.208;18.988;2022-11-09T10:52:32;33.60;1.00
20349;DHT22;10332;50.208;18.988;2022-11-09T10:55:23;34.00;1.00
20349;DHT22;10332;50.208;18.988;2022-11-09T10:58:01;34.30;1.00
20349;DHT22;10332;50.208;18.988;2022-11-09T11:00:59;34.30;1.00
20349;DHT22;10332;50.208;18.988;2022-11-09T11:03:32;34.30;1.00
20349;DHT22;10332;50.208;18.988;2022-11-09T11:06:11;34.00;1.00
20349;DHT22;10332;50.208;18.988;2022-11-09T11:08:43;33.70;1.00
20349;DHT22;10332;50.208;18.988;2022-11-09T11:11:24;33.80;1.00
20349;DHT22;10332;50.208;18.988;2022-11-09T11:14:31;34.10;1.00
20349;DHT22;10332;50.208;18.988;2022-11-09T11:17:00;34.60;1.00
20349;DHT22;10332;50.208;18.988;2022-11-09T11:24:46;34.50;1.00
20349;DHT22;10332;50.208;18.988;2022-11-09T11:27:35;34.50;1.00
20349;DHT22;10332;50.208;18.988;2022-11-09T11:30:18;34.60;1.00
20349;DHT22;10332;50.208;18.988;2022-11-09T11:32:54;34.70;1.00
20349;DHT22;10332;50.208;18.988;2022-11-09T11:35:34;34.90;1.00
20349;DHT22;10332;50.208;18.988;2022-11-09T11:56:01;36.20;1.00
20349;DHT22;10332;50.208;18.988;2022-11-09T12:05:24;35.80;1.00
20349;DHT22;10332;50.208;18.988;2022-11-09T12:24:12;28.50;1.00
20349;DHT22;10332;50.208;18.988;2022-11-09T12:27:10;28.70;1.00
20349;DHT22;10332;50.208;18.988;2022-11-09T12:33:02;31.50;1.00
20349;DHT22;10332;50.208;18.988;2022-11-09T12:35:50;32.10;1.00
20349;DHT22;10332;50.208;18.988;2022-11-09T12:38:28;32.70;1.00
20349;DHT22;10332;50.208;18.988;2022-11-09T12:41:19;32.60;1.00
20349;DHT22;10332;50.208;18.988;2022-11-09T12:46:58;32.60;1.00
20349;DHT22;10332;50.208;18.988;2022-11-09T12:49:35;32.00;1.00
20349;DHT22;10332;50.208;18.988;2022-11-09T12:52:11;31.80;1.00
20349;DHT22;10332;50.208;18.988;2022-11-09T12:54:46;32.00;1.00
20349;DHT22;10332;50.208;18.988;2022-11-09T12:57:27;32.10;1.00
20349;DHT22;10332;50.208;18.988;2022-11-09T12:59:58;31.80;1.00
20349;DHT22;10332;50.208;18.988;2022-11-09T13:02:35;31.40;1.00
20349;DHT22;10332;50.208;18.988;2022-11-09T13:05:37;30.60;1.00
20349;DHT22;10332;50.208;18.988;2022-11-09T13:08:14;29.50;1.00
20349;DHT22;10332;50.208;18.988;2022-11-09T13:11:19;28.50;1.00
20349;DHT22;10332;50.208;18.988;2022-11-09T13:16:52;26.60;1.00
20349;DHT22;10332;50.208;18.988;2022-11-09T13:30:00;25.50;1.00
20349;DHT22;10332;50.208;18.988;2022-11-09T13:32:31;25.80;1.00
20349;DHT22;10332;50.208;18.988;2022-11-09T13:35:01;26.20;1.00
20349;DHT22;10332;50.208;18.988;2022-11-09T13:43:03;26.10;1.00
20349;DHT22;10332;50.208;18.988;2022-11-09T13:54:34;24.70;1.00
20349;DHT22;10332;50.208;18.988;2022-11-09T13:57:05;23.60;1.00
20349;DHT22;10332;50.208;18.988;2022-11-09T13:59:45;22.60;1.00
20349;DHT22;10332;50.208;18.988;2022-11-09T14:02:19;21.70;1.00
20349;DHT22;10332;50.208;18.988;2022-11-09T14:04:48;20.90;1.00
20349;DHT22;10332;50.208;18.988;2022-11-09T14:07:27;20.30;1.00
20349;DHT22;10332;50.208;18.988;2022-11-09T14:21:45;18.60;1.00
20349;DHT22;10332;50.208;18.988;2022-11-09T14:24:25;18.40;1.00
20349;DHT22;10332;50.208;18.988;2022-11-09T14:35:31;18.10;1.00
20349;DHT22;10332;50.208;18.988;2022-11-09T14:38:14;18.20;1.00
20349;DHT22;10332;50.208;18.988;2022-11-09T14:40:46;18.00;1.00
20349;DHT22;10332;50.208;18.988;2022-11-09T14:46:00;17.30;1.00
20349;DHT22;10332;50.208;18.988;2022-11-09T14:48:31;17.00;1.00
20349;DHT22;10332;50.208;18.988;2022-11-09T14:51:02;16.70;1.00
20349;DHT22;10332;50.208;18.988;2022-11-09T14:53:35;16.40;9.40
20349;DHT22;10332;50.208;18.988;2022-11-09T14:56:05;16.20;19.20
20349;DHT22;10332;50.208;18.988;2022-11-09T14:58:41;15.90;26.90
20349;DHT22;10332;50.208;18.988;2022-11-09T15:04:19;15.40;38.70
20349;DHT22;10332;50.208;18.988;2022-11-09T15:06:52;15.20;44.10
20349;DHT22;10332;50.208;18.988;2022-11-09T15:09:35;14.90;47.10
20349;DHT22;10332;50.208;18.988;2022-11-09T15:12:17;14.70;50.00
20349;DHT22;10332;50.208;18.988;2022-11-09T15:14:49;14.50;52.00
20349;DHT22;10332;50.208;18.988;2022-11-09T15:17:29;14.40;54.70
20349;DHT22;10332;50.208;18.988;2022-11-09T15:23:04;14.00;58.40
20349;DHT22;10332;50.208;18.988;2022-11-09T15:28:25;13.70;61.80
20349;DHT22;10332;50.208;18.988;2022-11-09T15:33:56;13.40;65.10
20349;DHT22;10332;50.208;18.988;2022-11-09T15:36:32;13.40;66.90
20349;DHT22;10332;50.208;18.988;2022-11-09T15:39:14;13.30;67.80
20349;DHT22;10332;50.208;18.988;2022-11-09T15:41:43;13.10;69.60
20349;DHT22;10332;50.208;18.988;2022-11-09T15:44:12;13.10;70.00
20349;DHT22;10332;50.208;18.988;2022-11-09T15:46:46;13.00;71.30
20349;DHT22;10332;50.208;18.988;2022-11-09T15:49:22;12.90;72.20
20349;DHT22;10332;50.208;18.988;2022-11-09T15:51:51;12.90;73.50
20349;DHT22;10332;50.208;18.988;2022-11-09T15:54:21;12.80;74.40
20349;DHT22;10332;50.208;18.988;2022-11-09T15:56:50;12.70;74.80
20349;DHT22;10332;50.208;18.988;2022-11-09T15:59:23;12.70;75.00
20349;DHT22;10332;50.208;18.988;2022-11-09T16:01:52;12.60;75.70
20349;DHT22;10332;50.208;18.988;2022-11-09T16:04:19;12.60;76.10
20349;DHT22;10332;50.208;18.988;2022-11-09T16:06:47;12.60;77.80
20349;DHT22;10332;50.208;18.988;2022-11-09T16:09:14;12.50;77.80
20349;DHT22;10332;50.208;18.988;2022-11-09T16:11:41;12.40;78.90
20349;DHT22;10332;50.208;18.988;2022-11-09T16:14:09;12.40;79.60
20349;DHT22;10332;50.208;18.988;2022-11-09T16:16:36;12.40;80.60
20349;DHT22;10332;50.208;18.988;2022-11-09T16:19:04;12.30;80.90
20349;DHT22;10332;50.208;18.988;2022-11-09T16:21:31;12.30;81.70
20349;DHT22;10332;50.208;18.988;2022-11-09T16:23:58;12.20;82.80
20349;DHT22;10332;50.208;18.988;2022-11-09T16:26:26;12.10;84.00
20349;DHT22;10332;50.208;18.988;2022-11-09T16:28:53;12.10;84.60
20349;DHT22;10332;50.208;18.988;2022-11-09T16:31:21;12.00;85.10
20349;DHT22;10332;50.208;18.988;2022-11-09T16:34:08;12.00;86.10
20349;DHT22;10332;50.208;18.988;2022-11-09T16:36:36;11.90;86.60
20349;DHT22;10332;50.208;18.988;2022-11-09T16:39:13;11.90;87.40
20349;DHT22;10332;50.208;18.988;2022-11-09T16:41:46;11.90;87.70
20349;DHT22;10332;50.208;18.988;2022-11-09T16:44:19;11.80;87.80
20349;DHT22;10332;50.208;18.988;2022-11-09T16:46:50;11.80;88.00
20349;DHT22;10332;50.208;18.988;2022-11-09T16:49:18;11.70;88.70
20349;DHT22;10332;50.208;18.988;2022-11-09T16:51:45;11.70;90.10
20349;DHT22;10332;50.208;18.988;2022-11-09T16:54:12;11.60;90.60
20349;DHT22;10332;50.208;18.988;2022-11-09T16:56:39;11.60;91.20
20349;DHT22;10332;50.208;18.988;2022-11-09T16:59:07;11.50;91.80
20349;DHT22;10332;50.208;18.988;2022-11-09T17:01:34;11.50;92.40
20349;DHT22;10332;50.208;18.988;2022-11-09T17:04:02;11.50;92.90
20349;DHT22;10332;50.208;18.988;2022-11-09T17:06:32;11.50;93.10
20349;DHT22;10332;50.208;18.988;2022-11-09T17:09:01;11.40;93.70
20349;DHT22;10332;50.208;18.988;2022-11-09T17:11:28;11.30;94.00
20349;DHT22;10332;50.208;18.988;2022-11-09T17:13:57;11.30;94.30
20349;DHT22;10332;50.208;18.988;2022-11-09T17:16:25;11.30;94.80
20349;DHT22;10332;50.208;18.988;2022-11-09T17:18:54;11.20;95.00
20349;DHT22;10332;50.208;18.988;2022-11-09T17:21:24;11.20;95.80
20349;DHT22;10332;50.208;18.988;2022-11-09T17:23:55;11.10;96.10
20349;DHT22;10332;50.208;18.988;2022-11-09T17:26:23;11.00;97.00
20349;DHT22;10332;50.208;18.988;2022-11-09T17:28:51;11.00;97.40
20349;DHT22;10332;50.208;18.988;2022-11-09T17:31:21;10.90;97.90
20349;DHT22;10332;50.208;18.988;2022-11-09T17:33:49;10.90;98.00
20349;DHT22;10332;50.208;18.988;2022-11-09T17:36:17;10.90;98.40
20349;DHT22;10332;50.208;18.988;2022-11-09T17:39:05;10.90;98.50
20349;DHT22;10332;50.208;18.988;2022-11-09T17:41:33;10.80;99.00
20349;DHT22;10332;50.208;18.988;2022-11-09T17:44:07;10.80;99.80
20349;DHT22;10332;50.208;18.988;2022-11-09T17:46:34;10.80;99.80
20349;DHT22;10332;50.208;18.988;2022-11-09T17:49:02;10.80;99.80
20349;DHT22;10332;50.208;18.988;2022-11-09T17:51:36;10.70;99.90
20349;DHT22;10332;50.208;18.988;2022-11-09T17:54:03;10.70;99.90
20349;DHT22;10332;50.208;18.988;2022-11-09T17:56:31;10.70;99.90
20349;DHT22;10332;50.208;18.988;2022-11-09T17:59:01;10.70;99.90
20349;DHT22;10332;50.208;18.988;2022-11-09T18:01:29;10.60;99.90
20349;DHT22;10332;50.208;18.988;2022-11-09T18:04:06;10.60;99.90
20349;DHT22;10332;50.208;18.988;2022-11-09T18:06:34;10.60;99.90